Time;durP1;ratioP1;P1;durP2;ratioP2;P2;SDS_P1;SDS_P2;PMS_P1;PMS_P2;Temp;Humidity;BMP_temperature;BMP_pressure;BME280_temperature;BME280_humidity;BME280_pressure;Samples;Min_cycle;Max_cycle;Signal;HPM_P1;HPM_P2
2023/07/02 00:00:19;;;;;;;4.50;2.65;;;;;;;17.79;100.00;99610.38;5175356;28;20117;-73
2023/07/02 00:02:50;;;;;;;3.90;2.78;;;;;;;17.85;100.00;99603.75;5172815;28;20061;-73
2023/07/02 00:05:20;;;;;;;5.70;2.70;;;;;;;17.85;100.00;99601.94;5174936;28;20058;-73
2023/07/02 00:07:51;;;;;;;3.40;2.10;;;;;;;17.84;100.00;99597.63;5171952;28;20088;-73
2023/07/02 00:10:21;;;;;;;4.65;2.35;;;;;;;17.76;100.00;99597.41;5168682;28;20032;-73
2023/07/02 00:12:51;;;;;;;5.03;2.65;;;;;;;17.75;100.00;99597.50;5153904;28;20222;-74
2023/07/02 00:15:22;;;;;;;7.35;2.30;;;;;;;17.80;100.00;99593.53;5159854;28;20018;-74
2023/07/02 00:17:53;;;;;;;4.03;2.13;;;;;;;17.80;100.00;99595.38;5176447;28;20022;-74
2023/07/02 00:20:23;;;;;;;3.33;2.20;;;;;;;17.74;100.00;99601.13;5180018;28;20014;-73
2023/07/02 00:22:54;;;;;;;4.55;2.10;;;;;;;17.66;100.00;99598.28;5171193;28;20030;-73
2023/07/02 00:25:25;;;;;;;4.80;1.90;;;;;;;17.68;100.00;99598.97;5174729;28;20030;-74
2023/07/02 00:27:55;;;;;;;3.85;1.83;;;;;;;17.67;100.00;99606.06;5127645;28;20031;-74
2023/07/02 00:30:26;;;;;;;5.35;2.20;;;;;;;17.72;100.00;99608.34;5168794;28;20033;-74
2023/07/02 00:32:56;;;;;;;3.40;2.10;;;;;;;17.71;100.00;99606.66;5179657;28;20426;-73
2023/07/02 00:35:26;;;;;;;4.13;2.03;;;;;;;17.69;100.00;99609.41;5203718;23;20567;-73
2023/07/02 00:37:57;;;;;;;3.95;1.92;;;;;;;17.75;100.00;99610.72;5139424;28;20022;-71
2023/07/02 00:40:27;;;;;;;4.57;1.92;;;;;;;17.79;100.00;99609.56;5139621;28;20097;-72
2023/07/02 00:42:57;;;;;;;4.93;2.15;;;;;;;17.77;100.00;99612.31;5138831;28;20030;-72
2023/07/02 00:45:28;;;;;;;2.70;1.90;;;;;;;17.72;100.00;99611.84;5142284;28;20522;-72
2023/07/02 00:47:58;;;;;;;5.13;1.90;;;;;;;17.69;100.00;99624.44;5150140;28;20026;-71
2023/07/02 00:50:29;;;;;;;4.03;2.03;;;;;;;17.75;100.00;99621.31;5137729;28;20386;-72
2023/07/02 00:52:59;;;;;;;3.25;1.80;;;;;;;17.64;100.00;99616.88;5145309;28;20061;-72
2023/07/02 00:55:29;;;;;;;3.65;2.00;;;;;;;17.63;100.00;99617.00;5153201;28;20066;-72
2023/07/02 00:58:01;;;;;;;4.72;1.90;;;;;;;17.72;100.00;99616.28;5150681;28;20037;-72
2023/07/02 01:00:32;;;;;;;2.28;1.73;;;;;;;17.55;100.00;99609.69;5155262;28;20023;-72
2023/07/02 01:03:02;;;;;;;4.00;1.60;;;;;;;17.52;100.00;99611.72;5151292;28;20045;-72
2023/07/02 01:05:35;;;;;;;2.67;1.80;;;;;;;17.62;100.00;99610.06;5154170;28;20030;-73
2023/07/02 01:08:05;;;;;;;3.47;1.65;;;;;;;17.50;100.00;99603.09;5169057;28;20027;-72
2023/07/02 01:10:36;;;;;;;3.55;1.80;;;;;;;17.59;100.00;99595.28;5146854;28;20709;-71
2023/07/02 01:13:11;;;;;;;3.40;1.63;;;;;;;17.42;100.00;99592.28;5150591;28;20117;-72
2023/07/02 01:15:42;;;;;;;;;;;;;;;17.48;100.00;99587.34;5136516;28;20245;-73
2023/07/02 01:18:14;;;;;;;4.10;1.60;;;;;;;17.49;100.00;99599.59;5137098;28;19918;-72
2023/07/02 01:20:47;;;;;;;5.53;1.40;;;;;;;17.41;100.00;99595.88;5152321;28;20506;-72
2023/07/02 01:23:17;;;;;;;1.88;1.30;;;;;;;17.55;100.00;99595.63;5152038;28;20173;-72
2023/07/02 01:25:51;;;;;;;4.50;1.40;;;;;;;17.34;100.00;99589.41;5155650;28;20435;-71
2023/07/02 01:28:23;;;;;;;4.38;1.60;;;;;;;17.38;100.00;99604.03;5149758;28;20049;-72
2023/07/02 01:30:54;;;;;;;2.75;1.50;;;;;;;17.38;100.00;99606.69;5148184;28;20050;-72
2023/07/02 01:33:24;;;;;;;4.32;1.40;;;;;;;17.38;100.00;99614.63;5151371;28;20391;-72
2023/07/02 01:35:54;;;;;;;3.53;1.17;;;;;;;17.39;100.00;99605.72;5153219;28;20492;-72
2023/07/02 01:38:25;;;;;;;2.42;1.20;;;;;;;17.33;100.00;99614.09;5152848;28;20485;-72
2023/07/02 01:40:55;;;;;;;3.92;1.33;;;;;;;17.41;100.00;99619.66;5148210;28;20029;-72
2023/07/02 01:43:25;;;;;;;2.50;1.23;;;;;;;17.31;100.00;99603.66;5142181;28;20482;-72
2023/07/02 01:45:56;;;;;;;2.20;1.30;;;;;;;17.30;100.00;99614.34;5142629;28;20038;-72
2023/07/02 01:48:27;;;;;;;2.10;1.20;;;;;;;17.24;100.00;99607.75;5142674;28;20030;-72
2023/07/02 01:50:57;;;;;;;2.53;1.27;;;;;;;17.15;100.00;99613.72;5142631;28;20412;-72
2023/07/02 01:53:27;;;;;;;2.75;1.27;;;;;;;17.24;100.00;99617.44;5143136;28;20045;-72
2023/07/02 01:55:59;;;;;;;1.88;1.20;;;;;;;17.31;100.00;99616.03;5146587;28;20034;-72
2023/07/02 01:58:29;;;;;;;2.17;0.98;;;;;;;17.17;100.00;99619.72;5158732;28;20031;-72
2023/07/02 02:01:00;;;;;;;1.88;1.30;;;;;;;17.13;100.00;99617.47;5146004;28;20100;-72
2023/07/02 02:03:31;;;;;;;3.30;1.40;;;;;;;17.06;100.00;99618.88;5130491;28;20061;-72
2023/07/02 02:06:02;;;;;;;4.43;1.30;;;;;;;17.07;100.00;99610.00;5148558;28;20513;-71
2023/07/02 02:08:32;;;;;;;5.72;1.15;;;;;;;16.98;100.00;99611.53;5149806;28;20076;-72
2023/07/02 02:11:02;;;;;;;1.23;1.00;;;;;;;16.96;100.00;99605.53;5150104;28;20034;-71
2023/07/02 02:13:33;;;;;;;2.90;1.30;;;;;;;16.94;100.00;99604.00;5155507;28;20030;-72
2023/07/02 02:16:03;;;;;;;4.50;1.30;;;;;;;16.84;100.00;99610.94;5152488;28;20031;-72
2023/07/02 02:18:34;;;;;;;2.42;1.40;;;;;;;16.81;100.00;99622.56;5150289;28;20050;-72
2023/07/02 02:21:05;;;;;;;1.88;1.23;;;;;;;16.78;100.00;99614.88;5164490;28;20022;-72
2023/07/02 02:23:35;;;;;;;4.20;1.30;;;;;;;16.70;100.00;99632.25;5149500;28;20392;-72
2023/07/02 02:26:05;;;;;;;6.13;1.35;;;;;;;16.59;100.00;99634.00;5151197;28;20031;-72
2023/07/02 02:28:36;;;;;;;5.18;1.42;;;;;;;16.62;100.00;99633.78;5149311;28;20500;-72
2023/07/02 02:31:07;;;;;;;2.78;1.58;;;;;;;16.43;100.00;99623.78;5149510;28;20106;-72
2023/07/02 02:33:37;;;;;;;5.72;1.30;;;;;;;16.53;100.00;99640.59;5152495;28;20188;-72
2023/07/02 02:36:08;;;;;;;3.90;1.50;;;;;;;16.58;100.00;99634.97;5166835;28;20185;-72
2023/07/02 02:38:38;;;;;;;2.72;1.38;;;;;;;16.47;100.00;99640.19;5151756;28;20034;-72
2023/07/02 02:41:08;;;;;;;5.55;1.60;;;;;;;16.49;100.00;99643.56;5149199;28;20022;-72
2023/07/02 02:43:45;;;;;;;5.22;1.40;;;;;;;16.48;100.00;99648.00;5153545;28;20045;-73
2023/07/02 02:46:22;;;;;;;3.05;1.50;;;;;;;16.43;100.00;99644.03;5169097;28;20404;-72
2023/07/02 02:48:53;;;;;;;7.47;1.52;;;;;;;16.39;100.00;99643.41;5170042;28;20488;-72
2023/07/02 02:51:23;;;;;;;3.65;1.40;;;;;;;16.33;100.00;99648.25;5152897;28;20109;-72
2023/07/02 02:53:53;;;;;;;3.78;1.60;;;;;;;16.31;100.00;99647.53;5151206;28;20018;-72
2023/07/02 02:56:24;;;;;;;2.05;1.35;;;;;;;16.28;100.00;99642.47;5152904;28;20035;-72
2023/07/02 02:58:54;;;;;;;4.72;1.60;;;;;;;16.26;100.00;99641.75;5151606;28;20033;-72
2023/07/02 03:01:28;;;;;;;3.63;1.58;;;;;;;16.20;100.00;99647.50;5151924;28;20029;-72
2023/07/02 03:03:59;;;;;;;5.25;1.45;;;;;;;16.30;100.00;99648.47;5152081;28;20026;-72
2023/07/02 03:06:30;;;;;;;5.35;2.42;;;;;;;16.26;100.00;99642.59;5170880;28;20038;-72
2023/07/02 03:09:00;;;;;;;3.22;1.52;;;;;;;16.34;100.00;99640.22;5153484;28;20033;-71
2023/07/02 03:11:30;;;;;;;3.20;1.63;;;;;;;16.42;100.00;99644.97;5151368;28;20237;-72
2023/07/02 03:14:01;;;;;;;3.83;1.60;;;;;;;16.43;100.00;99636.97;5152217;28;20039;-72
2023/07/02 03:16:33;;;;;;;3.53;1.60;;;;;;;16.55;100.00;99638.66;5135236;28;20034;-72
2023/07/02 03:19:03;;;;;;;4.93;1.75;;;;;;;16.44;100.00;99635.16;5151220;28;20089;-72
2023/07/02 03:21:34;;;;;;;2.80;1.75;;;;;;;16.41;100.00;99641.47;5150881;28;20030;-72
2023/07/02 03:24:04;;;;;;;3.53;1.80;;;;;;;16.59;100.00;99647.19;5150071;28;20527;-72
2023/07/02 03:26:34;;;;;;;4.90;1.63;;;;;;;16.45;100.00;99642.97;5152113;28;20041;-72
2023/07/02 03:29:06;;;;;;;2.30;1.40;;;;;;;16.44;100.00;99636.00;5151788;28;20444;-72
2023/07/02 03:31:36;;;;;;;3.63;1.60;;;;;;;16.51;100.00;99644.28;5147799;28;20041;-72
2023/07/02 03:34:09;;;;;;;9.35;1.90;;;;;;;16.52;100.00;99630.97;5150467;28;20026;-72
2023/07/02 03:36:39;;;;;;;3.33;1.50;;;;;;;16.57;100.00;99625.38;5153516;28;20026;-72
2023/07/02 03:39:10;;;;;;;6.78;1.65;;;;;;;16.58;100.00;99627.06;5148297;28;20034;-72
2023/07/02 03:41:40;;;;;;;2.63;1.77;;;;;;;16.55;100.00;99633.38;5148246;28;20018;-72
2023/07/02 03:44:10;;;;;;;3.22;1.70;;;;;;;16.64;100.00;99631.84;5151406;28;20026;-72
2023/07/02 03:46:41;;;;;;;3.58;1.80;;;;;;;16.66;100.00;99635.22;5159371;28;20137;-73
2023/07/02 03:49:11;;;;;;;3.38;1.80;;;;;;;16.75;100.00;99624.00;5158383;28;20058;-71
2023/07/02 03:51:41;;;;;;;4.40;1.73;;;;;;;16.69;100.00;99635.03;5176544;28;20030;-72
2023/07/02 03:54:12;;;;;;;5.38;2.03;;;;;;;16.74;100.00;99640.78;5154222;28;20038;-72
2023/07/02 03:56:42;;;;;;;4.45;1.80;;;;;;;16.75;100.00;99640.66;5158039;28;20057;-72
2023/07/02 03:59:12;;;;;;;4.50;1.80;;;;;;;16.73;100.00;99637.28;5158159;28;20042;-72
2023/07/02 04:01:43;;;;;;;3.15;1.80;;;;;;;16.74;100.00;99630.22;5153862;28;20487;-72
2023/07/02 04:04:13;;;;;;;6.00;2.70;;;;;;;16.88;100.00;99636.13;5158351;28;20038;-72
2023/07/02 04:06:44;;;;;;;3.05;1.90;;;;;;;16.82;100.00;99637.44;5160043;28;20026;-72
2023/07/02 04:09:14;;;;;;;7.22;1.98;;;;;;;16.78;100.00;99637.81;5158194;28;20036;-72
2023/07/02 04:11:44;;;;;;;3.65;2.03;;;;;;;16.85;100.00;99639.00;5156949;28;20026;-72
2023/07/02 04:14:15;;;;;;;5.40;1.88;;;;;;;16.93;100.00;99634.81;5172425;28;20030;-72
2023/07/02 04:16:45;;;;;;;2.92;1.92;;;;;;;17.01;100.00;99637.72;5158253;28;20026;-72
2023/07/02 04:19:15;;;;;;;6.15;2.67;;;;;;;16.94;100.00;99644.44;5173774;28;20441;-72
2023/07/02 04:21:46;;;;;;;6.18;2.10;;;;;;;16.97;100.00;99641.53;5176757;28;20026;-72
2023/07/02 04:24:17;;;;;;;5.40;2.08;;;;;;;17.16;100.00;99647.09;5159192;28;20068;-72
2023/07/02 04:26:47;;;;;;;4.20;2.42;;;;;;;17.28;100.00;99650.63;5160143;28;20125;-72
2023/07/02 04:29:17;;;;;;;7.93;2.50;;;;;;;17.21;100.00;99649.38;5152346;28;20076;-72
2023/07/02 04:31:48;;;;;;;3.03;2.05;;;;;;;17.25;100.00;99658.75;5156966;28;20065;-72
2023/07/02 04:34:21;;;;;;;4.95;2.03;;;;;;;17.19;100.00;99649.53;5143015;28;20058;-72
2023/07/02 04:36:52;;;;;;;7.47;2.10;;;;;;;17.27;100.00;99648.91;5158524;28;20320;-72
2023/07/02 04:39:22;;;;;;;3.72;1.92;;;;;;;17.26;100.00;99649.88;5159486;28;20034;-72
2023/07/02 04:41:52;;;;;;;3.17;1.92;;;;;;;17.26;100.00;99647.22;5152998;28;20022;-72
2023/07/02 04:44:29;;;;;;;4.45;2.08;;;;;;;17.12;100.00;99650.94;5158553;28;20026;-72
2023/07/02 04:47:01;;;;;;;4.00;2.35;;;;;;;17.12;100.00;99656.22;5159181;28;20284;-72
2023/07/02 04:49:31;;;;;;;4.57;2.15;;;;;;;17.21;100.00;99660.81;5159371;28;20082;-72
2023/07/02 04:52:02;;;;;;;4.60;2.17;;;;;;;17.14;100.00;99658.75;5159369;28;20876;-72
2023/07/02 04:54:32;;;;;;;2.90;2.20;;;;;;;17.22;100.00;99662.50;5160673;28;20042;-72
2023/07/02 04:57:03;;;;;;;3.40;2.38;;;;;;;17.19;100.00;99665.38;5156677;28;20030;-72
2023/07/02 04:59:33;;;;;;;4.68;2.42;;;;;;;17.19;100.00;99662.72;5156773;28;20400;-72
2023/07/02 05:02:03;;;;;;;4.05;2.50;;;;;;;17.29;100.00;99662.84;5155935;28;20031;-72
2023/07/02 05:04:35;;;;;;;6.68;3.03;;;;;;;17.26;100.00;99655.16;5156688;28;20464;-72
2023/07/02 05:07:05;;;;;;;5.05;2.70;;;;;;;17.33;100.00;99659.84;5155314;28;20026;-72
2023/07/02 05:09:36;;;;;;;6.03;3.17;;;;;;;17.32;100.00;99660.78;5156854;28;20076;-72
2023/07/02 05:12:06;;;;;;;6.47;3.25;;;;;;;17.36;100.00;99658.81;5152382;28;20034;-72
2023/07/02 05:14:37;;;;;;;5.47;3.25;;;;;;;17.37;100.00;99655.19;5154044;28;20030;-72
2023/07/02 05:17:07;;;;;;;4.38;3.10;;;;;;;17.34;100.00;99650.16;5155922;28;20117;-72
2023/07/02 05:19:37;;;;;;;7.70;3.30;;;;;;;17.39;100.00;99658.56;5157014;28;20022;-71
2023/07/02 05:22:09;;;;;;;5.88;3.67;;;;;;;17.33;100.00;99653.72;5155482;28;20097;-71
2023/07/02 05:24:40;;;;;;;5.25;3.58;;;;;;;17.38;100.00;99656.88;5153281;28;20042;-71
2023/07/02 05:27:11;;;;;;;6.53;3.72;;;;;;;17.29;100.00;99654.94;5154651;28;20026;-71
2023/07/02 05:29:41;;;;;;;6.28;4.50;;;;;;;17.18;100.00;99660.19;5124470;28;20037;-71
2023/07/02 05:32:11;;;;;;;6.63;4.47;;;;;;;17.21;100.00;99670.50;5153442;28;20081;-71
2023/07/02 05:34:42;;;;;;;6.45;4.65;;;;;;;17.49;100.00;99675.38;5157088;28;20026;-71
2023/07/02 05:37:12;;;;;;;7.22;4.63;;;;;;;17.40;100.00;99695.44;5155017;28;20117;-70
2023/07/02 05:39:42;;;;;;;8.02;4.40;;;;;;;17.20;100.00;99687.31;5152648;28;20018;-72
2023/07/02 05:42:13;;;;;;;11.40;3.97;;;;;;;16.90;100.00;99682.56;5146786;28;20081;-70
2023/07/02 05:44:43;;;;;;;9.07;3.28;;;;;;;16.51;100.00;99702.31;5156672;28;20030;-71
2023/07/02 05:47:13;;;;;;;9.73;3.38;;;;;;;16.24;100.00;99702.50;5151081;28;20026;-70
2023/07/02 05:49:44;;;;;;;11.05;3.55;;;;;;;16.21;100.00;99702.72;5148552;28;20058;-72
2023/07/02 05:52:14;;;;;;;9.40;3.63;;;;;;;16.20;100.00;99706.31;5156668;28;20052;-71
2023/07/02 05:54:44;;;;;;;11.95;4.10;;;;;;;16.19;100.00;99702.00;5156891;28;20477;-72
2023/07/02 05:57:15;;;;;;;17.40;4.72;;;;;;;16.08;100.00;99691.38;5155360;28;20492;-71
2023/07/02 05:59:45;;;;;;;10.45;3.45;;;;;;;15.96;100.00;99692.28;5153608;28;20015;-72
2023/07/02 06:02:15;;;;;;;11.13;3.78;;;;;;;15.96;100.00;99686.16;5150736;28;20045;-71
2023/07/02 06:04:46;;;;;;;8.27;3.53;;;;;;;15.96;100.00;99696.69;5153445;28;20030;-72
2023/07/02 06:07:16;;;;;;;7.38;3.10;;;;;;;16.06;100.00;99709.09;5163730;28;20022;-72
2023/07/02 06:09:46;;;;;;;12.98;3.97;;;;;;;16.03;100.00;99706.69;5142749;28;20397;-72
2023/07/02 06:12:17;;;;;;;10.73;3.65;;;;;;;15.95;100.00;99716.94;5134380;28;20030;-72
2023/07/02 06:14:47;;;;;;;12.73;3.90;;;;;;;15.95;100.00;99711.69;5153368;28;20018;-72
2023/07/02 06:17:17;;;;;;;9.93;3.90;;;;;;;16.00;100.00;99717.44;5151558;28;20400;-72
2023/07/02 06:19:48;;;;;;;10.27;3.97;;;;;;;15.90;100.00;99719.03;5163620;28;20030;-72
2023/07/02 06:22:18;;;;;;;12.50;3.78;;;;;;;16.04;100.00;99710.19;5145065;28;20037;-72
2023/07/02 06:24:49;;;;;;;8.98;4.10;;;;;;;16.08;100.00;99711.63;5143194;28;20026;-72
2023/07/02 06:27:19;;;;;;;11.55;4.10;;;;;;;16.10;100.00;99718.50;5140059;28;20023;-72
2023/07/02 06:29:51;;;;;;;10.48;4.25;;;;;;;16.40;100.00;99724.19;5133939;28;20101;-72
2023/07/02 06:32:21;;;;;;;11.48;4.28;;;;;;;16.53;100.00;99724.16;5132332;28;20035;-72
2023/07/02 06:34:52;;;;;;;12.18;4.32;;;;;;;16.79;100.00;99721.28;5138954;28;20508;-72
2023/07/02 06:39:55;;;;;;;13.32;4.22;;;;;;;17.06;100.00;99721.84;5160474;28;20064;-73
2023/07/02 06:42:26;;;;;;;11.13;4.38;;;;;;;16.81;100.00;99722.00;5146208;28;20030;-73
2023/07/02 06:44:56;;;;;;;10.20;4.60;;;;;;;16.80;100.00;99721.16;5154993;28;20535;-74
2023/07/02 06:47:26;;;;;;;11.50;4.22;;;;;;;17.28;100.00;99730.69;5152875;28;20061;-73
2023/07/02 06:49:58;;;;;;;10.93;4.28;;;;;;;17.91;100.00;99727.50;5161979;28;20128;-73
2023/07/02 06:52:28;;;;;;;12.93;4.32;;;;;;;18.99;100.00;99730.03;5153418;28;20025;-73
2023/07/02 06:54:58;;;;;;;9.88;3.83;;;;;;;19.06;100.00;99724.09;5147174;28;20031;-73
2023/07/02 06:57:29;;;;;;;12.32;3.78;;;;;;;19.08;100.00;99727.47;5146768;28;20022;-74
2023/07/02 06:59:59;;;;;;;11.88;3.47;;;;;;;19.45;98.96;99727.88;5148079;28;20535;-73
2023/07/02 07:02:29;;;;;;;8.77;3.53;;;;;;;20.08;98.90;99724.97;5147970;28;20380;-73
2023/07/02 07:05:00;;;;;;;11.30;3.83;;;;;;;20.40;92.18;99729.13;5148023;28;20061;-74
2023/07/02 07:07:30;;;;;;;10.02;3.38;;;;;;;21.79;89.06;99721.41;5159295;28;20084;-74
2023/07/02 07:10:01;;;;;;;11.35;3.63;;;;;;;21.56;85.65;99730.66;5155248;28;20029;-74
2023/07/02 07:12:31;;;;;;;9.27;3.85;;;;;;;21.79;86.07;99725.88;5146764;28;20026;-74
2023/07/02 07:15:02;;;;;;;12.35;4.15;;;;;;;21.44;88.27;99737.13;5154956;28;20531;-73
2023/07/02 07:17:32;;;;;;;11.85;3.65;;;;;;;21.80;85.62;99732.88;5153371;28;20206;-73
2023/07/02 07:20:04;;;;;;;12.45;3.58;;;;;;;22.96;81.29;99736.41;5157871;28;20029;-73
2023/07/02 07:22:35;;;;;;;11.32;3.78;;;;;;;23.26;80.33;99738.72;5151774;28;20066;-74
2023/07/02 07:25:05;;;;;;;10.90;3.58;;;;;;;23.63;78.81;99752.66;5147170;28;20053;-73
2023/07/02 07:27:36;;;;;;;9.75;3.70;;;;;;;23.42;80.35;99739.69;5148621;28;20032;-73
2023/07/02 07:30:07;;;;;;;8.68;3.60;;;;;;;22.84;78.16;99749.13;5154534;28;20019;-73
2023/07/02 07:32:37;;;;;;;8.65;3.65;;;;;;;23.72;77.31;99736.53;5152446;28;20868;-74
2023/07/02 07:35:08;;;;;;;11.40;3.80;;;;;;;24.02;76.50;99738.75;5154880;28;20381;-73
2023/07/02 07:37:38;;;;;;;10.43;3.47;;;;;;;23.50;75.57;99734.41;5160447;28;20028;-74
2023/07/02 07:40:09;;;;;;;12.70;3.78;;;;;;;23.74;77.00;99737.22;5157789;28;20014;-73
2023/07/02 07:42:41;;;;;;;13.07;4.55;;;;;;;23.89;73.93;99749.00;5154892;28;20049;-72
2023/07/02 07:45:11;;;;;;;14.20;3.58;;;;;;;24.31;74.75;99741.88;5158274;28;20052;-73
2023/07/02 07:47:41;;;;;;;10.68;3.90;;;;;;;23.19;75.63;99762.50;5157644;28;20030;-72
2023/07/02 07:50:12;;;;;;;11.52;3.83;;;;;;;23.26;77.21;99760.91;5161293;28;20025;-73
2023/07/02 07:52:43;;;;;;;10.88;4.03;;;;;;;22.92;78.29;99746.56;5172789;28;20034;-73
2023/07/02 07:55:13;;;;;;;11.65;3.45;;;;;;;23.50;73.32;99752.25;5152454;28;20022;-73
2023/07/02 07:57:43;;;;;;;8.73;3.58;;;;;;;23.60;75.60;99761.84;5158133;28;20467;-73
2023/07/02 08:00:15;;;;;;;9.13;3.67;;;;;;;22.55;79.35;99758.31;5159021;28;20084;-73
2023/07/02 08:02:49;;;;;;;7.95;3.45;;;;;;;22.29;79.98;99765.28;5151842;28;20042;-72
2023/07/02 08:05:19;;;;;;;9.32;3.55;;;;;;;22.43;77.50;99758.69;5150929;28;20030;-73
2023/07/02 08:07:50;;;;;;;10.75;3.90;;;;;;;23.54;71.72;99757.09;5157361;28;20088;-73
2023/07/02 08:10:20;;;;;;;13.32;3.05;;;;;;;23.39;72.06;99763.97;5155790;28;20034;-73
2023/07/02 08:12:54;;;;;;;9.68;3.20;;;;;;;24.27;69.86;99758.38;5153441;28;20018;-73
2023/07/02 08:15:24;;;;;;;7.65;3.67;;;;;;;24.35;67.77;99766.44;5157283;28;20030;-72
2023/07/02 08:17:57;;;;;;;10.13;3.60;;;;;;;24.48;66.47;99767.66;5168600;28;20040;-73
2023/07/02 08:20:27;;;;;;;9.27;3.00;;;;;;;24.56;65.57;99770.38;5158039;28;20072;-73
2023/07/02 08:22:58;;;;;;;6.65;3.30;;;;;;;25.50;64.04;99772.56;5157919;28;20061;-73
2023/07/02 08:25:28;;;;;;;9.55;3.67;;;;;;;25.20;63.13;99779.41;5157666;28;20042;-73
2023/07/02 08:27:59;;;;;;;10.45;3.70;;;;;;;24.13;64.82;99777.69;5148607;28;20030;-73
2023/07/02 08:30:29;;;;;;;11.15;3.80;;;;;;;24.46;64.89;99785.69;5153672;28;20030;-72
2023/07/02 08:32:59;;;;;;;8.60;3.58;;;;;;;23.77;65.89;99787.63;5155015;28;20639;-72
2023/07/02 08:35:30;;;;;;;13.98;3.90;;;;;;;24.70;62.52;99788.47;5155038;28;20120;-73
2023/07/02 08:38:00;;;;;;;8.52;3.55;;;;;;;24.31;64.13;99797.97;5155112;28;20593;-73
2023/07/02 08:40:30;;;;;;;11.48;3.67;;;;;;;24.05;63.82;99809.69;5147911;28;20449;-72
2023/07/02 08:43:01;;;;;;;11.45;4.35;;;;;;;23.73;61.13;99812.94;5161527;28;20046;-73
2023/07/02 08:45:32;;;;;;;12.63;3.88;;;;;;;24.82;61.03;99820.06;5158304;28;20121;-73
2023/07/02 08:48:02;;;;;;;11.38;3.78;;;;;;;24.62;58.53;99825.88;5138390;28;20046;-72
2023/07/02 08:50:33;;;;;;;11.38;3.80;;;;;;;24.30;61.13;99812.34;5142521;28;20126;-73
2023/07/02 08:53:03;;;;;;;14.50;4.88;;;;;;;24.58;59.56;99810.31;5136608;28;20044;-73
2023/07/02 08:55:34;;;;;;;10.75;4.10;;;;;;;24.53;59.93;99809.97;5140466;28;20033;-72
2023/07/02 08:58:04;;;;;;;7.82;3.50;;;;;;;23.56;59.98;99827.16;5141904;28;20042;-73
2023/07/02 09:00:36;;;;;;;11.60;4.10;;;;;;;23.23;62.58;99824.38;5154333;28;20032;-72
2023/07/02 09:03:15;;;;;;;9.45;4.00;;;;;;;23.31;62.21;99830.63;5161333;28;20134;-73
2023/07/02 09:05:52;;;;;;;13.68;4.28;;;;;;;23.30;61.36;99815.59;5158185;28;20021;-72
2023/07/02 09:08:24;;;;;;;15.32;4.07;;;;;;;23.87;62.09;99825.75;5148751;28;20083;-73
2023/07/02 09:11:11;;;;;;;10.68;4.40;;;;;;;24.46;60.73;99817.75;5170617;28;20049;-72
2023/07/02 09:13:48;;;;;;;12.15;4.47;;;;;;;24.89;60.74;99830.97;5171507;28;20041;-72
2023/07/02 09:16:30;;;;;;;13.50;4.68;;;;;;;25.13;58.23;99834.53;5169784;28;20427;-73
2023/07/02 09:19:07;;;;;;;12.95;4.20;;;;;;;25.44;58.44;99824.91;5168487;28;20087;-73
2023/07/02 09:21:42;;;;;;;12.63;3.95;;;;;;;24.24;59.49;99831.66;5161047;28;20512;-72
2023/07/02 09:24:18;;;;;;;10.32;3.92;;;;;;;25.28;61.37;99818.72;5149865;28;20082;-72
2023/07/02 09:26:50;;;;;;;11.00;4.25;;;;;;;26.47;56.20;99822.25;5151137;28;20054;-72
2023/07/02 09:29:29;;;;;;;12.15;4.38;;;;;;;25.15;59.07;99826.34;5147883;28;20033;-72
2023/07/02 09:32:01;;;;;;;13.63;4.10;;;;;;;23.71;60.97;99838.13;5147737;28;20464;-72
2023/07/02 09:34:32;;;;;;;11.38;4.22;;;;;;;23.02;62.20;99840.63;5155921;28;20202;-73
2023/07/02 09:37:05;;;;;;;11.10;4.25;;;;;;;23.05;64.35;99837.63;5149262;28;20034;-72
2023/07/02 09:39:36;;;;;;;9.68;4.10;;;;;;;22.94;65.54;99827.22;5152678;28;20038;-71
2023/07/02 09:42:09;;;;;;;9.50;4.05;;;;;;;24.24;61.66;99828.97;5157881;28;20101;-71
2023/07/02 09:44:42;;;;;;;10.63;3.95;;;;;;;24.96;60.28;99832.81;5136065;28;20045;-72
2023/07/02 09:47:17;;;;;;;12.07;4.00;;;;;;;25.00;59.79;99838.69;5119826;28;20034;-71
2023/07/02 09:50:08;;;;;;;11.18;3.83;;;;;;;25.18;59.47;99826.03;5143295;28;20192;-72
2023/07/02 09:52:38;;;;;;;10.98;4.32;;;;;;;24.81;57.79;99829.09;5142784;28;20021;-72
2023/07/02 09:55:09;;;;;;;14.23;4.55;;;;;;;26.50;56.61;99819.28;5141462;28;20030;-72
2023/07/02 09:57:43;;;;;;;11.25;3.83;;;;;;;26.18;57.83;99830.06;5132670;28;20030;-72
2023/07/02 10:00:14;;;;;;;9.63;4.00;;;;;;;26.19;57.37;99837.91;5152473;28;20046;-72
2023/07/02 10:02:49;;;;;;;8.20;3.90;;;;;;;27.13;55.37;99829.69;5149446;28;20034;-73
2023/07/02 10:05:34;;;;;;;8.70;3.90;;;;;;;26.77;53.46;99828.50;5159294;28;20360;-73
2023/07/02 10:08:17;;;;;;;12.30;4.22;;;;;;;25.60;55.65;99829.41;5141986;28;20037;-73
2023/07/02 10:10:48;;;;;;;12.82;4.47;;;;;;;24.82;57.88;99846.81;5145601;28;20113;-71
2023/07/02 10:13:28;;;;;;;9.52;4.05;;;;;;;24.94;58.30;99839.34;5160858;28;20026;-73
2023/07/02 10:16:02;;;;;;;10.63;4.35;;;;;;;24.50;58.85;99835.16;5150071;28;20037;-73
2023/07/02 10:18:34;;;;;;;13.65;4.22;;;;;;;23.16;57.72;99829.47;5144311;28;20080;-72
2023/07/02 10:21:17;;;;;;;10.93;4.00;;;;;;;22.84;59.69;99834.41;5140337;28;20062;-72
2023/07/02 10:23:47;;;;;;;10.30;3.85;;;;;;;22.94;59.93;99843.22;5141524;28;20125;-71
2023/07/02 10:26:19;;;;;;;10.43;3.70;;;;;;;22.94;58.31;99845.03;5145056;28;20132;-72
2023/07/02 10:28:57;;;;;;;12.32;4.03;;;;;;;23.34;59.50;99842.81;5135986;28;20030;-71
2023/07/02 10:31:28;;;;;;;13.32;4.57;;;;;;;23.15;59.38;99845.59;5140882;28;20057;-72
2023/07/02 10:33:58;;;;;;;11.25;4.30;;;;;;;23.51;58.74;99836.63;5140373;28;20258;-72
2023/07/02 10:36:29;;;;;;;10.57;4.05;;;;;;;23.39;57.39;99843.19;5137696;28;20182;-72
2023/07/02 10:39:04;;;;;;;9.65;3.90;;;;;;;23.51;58.94;99839.31;5131169;28;20025;-72
2023/07/02 10:41:35;;;;;;;8.80;3.63;;;;;;;23.41;57.97;99844.72;5133730;28;20046;-73
2023/07/02 10:44:07;;;;;;;11.23;3.28;;;;;;;22.99;57.55;99842.75;5144184;28;20037;-73
2023/07/02 10:46:45;;;;;;;10.07;3.85;;;;;;;23.46;58.95;99849.56;5151592;28;20190;-72
2023/07/02 10:49:17;;;;;;;8.65;4.00;;;;;;;23.28;57.29;99852.25;5153458;28;20325;-72
2023/07/02 10:51:57;;;;;;;10.57;3.78;;;;;;;23.22;56.71;99831.50;5167939;28;20136;-71
2023/07/02 10:54:45;;;;;;;11.88;4.10;;;;;;;23.39;57.91;99846.69;5170323;28;20037;-72
2023/07/02 10:57:20;;;;;;;12.55;3.80;;;;;;;23.38;55.74;99839.66;5152203;28;20073;-72
2023/07/02 10:59:50;;;;;;;8.73;3.45;;;;;;;23.14;55.79;99844.78;5169039;28;20133;-71
2023/07/02 11:02:20;;;;;;;13.80;5.22;;;;;;;22.97;56.59;99834.91;5147776;28;20037;-72
2023/07/02 11:04:51;;;;;;;10.60;3.88;;;;;;;23.03;56.10;99860.94;5149795;28;20181;-72
2023/07/02 11:07:24;;;;;;;11.63;3.67;;;;;;;22.82;55.47;99860.38;5171963;28;20046;-72
2023/07/02 11:09:55;;;;;;;12.23;3.78;;;;;;;23.10;55.91;99854.03;5154016;28;20593;-72
2023/07/02 11:12:30;;;;;;;14.02;4.07;;;;;;;23.53;58.00;99843.47;5148587;28;20041;-72
2023/07/02 11:15:11;;;;;;;12.07;3.83;;;;;;;23.64;57.63;99840.56;5155331;28;20072;-73
2023/07/02 11:17:42;;;;;;;10.40;4.03;;;;;;;23.78;56.52;99857.84;5151842;28;20037;-71
2023/07/02 11:20:14;;;;;;;8.18;4.03;;;;;;;23.31;53.49;99849.28;5155859;28;20260;-73
2023/07/02 11:22:46;;;;;;;9.40;3.63;;;;;;;23.78;55.56;99857.84;5164156;28;20133;-72
2023/07/02 11:25:18;;;;;;;10.27;3.60;;;;;;;23.49;54.43;99865.28;5155941;28;20030;-72
2023/07/02 11:27:49;;;;;;;10.73;3.53;;;;;;;23.60;55.50;99854.38;5163631;28;20054;-71
2023/07/02 11:30:19;;;;;;;9.68;3.60;;;;;;;23.46;54.83;99861.09;5157497;28;20038;-72
2023/07/02 11:32:52;;;;;;;9.30;3.28;;;;;;;23.21;52.60;99863.69;5161357;28;20206;-72
2023/07/02 11:35:34;;;;;;;12.90;3.58;;;;;;;23.41;55.18;99865.22;5152958;28;20084;-72
2023/07/02 11:38:04;;;;;;;9.95;3.92;;;;;;;23.36;54.80;99860.31;5155047;28;20137;-72
2023/07/02 11:40:34;;;;;;;8.88;3.67;;;;;;;23.59;54.68;99874.03;5156846;28;20116;-72
2023/07/02 11:43:05;;;;;;;8.75;3.70;;;;;;;23.39;55.30;99865.34;5143927;28;20044;-73
2023/07/02 11:45:36;;;;;;;12.18;3.70;;;;;;;23.15;56.22;99862.47;5146898;28;20026;-72
2023/07/02 11:48:06;;;;;;;15.50;3.40;;;;;;;23.17;55.73;99886.31;5146938;28;20049;-73